Airfield :
LOGIN :

Register | Disclaimer

   EN    FR    IT 

 










Legend :    VFR   Marginal VFR   IFR   Intensive IFR   Very Intensive IFR
Visi :
Ceiling :
>= 8 km
>= 3000ft
5 to 8 km
1000 to 3000 ft
1500m to 5 km
500 to 1000 ft
800 to 1500m
200 to 500 ft
< 800m
< 200 ft
Symbols :   Thunderstorms  Fog  Heavy snow  Heavy precipitations  Wind > 20 kt
SIGMETs :     Misc.  Thunderstorms  Icing  Turbulence  Mountain Waves  Volcanic Ashes







- Airport Elevation : 13 ft
- IATA code : CEQ
- Download approach charts


LFMD - Cannes Mandelieu

CURRENT METAR :
  • 120400Z AUTO VRB04KT 9999 SCT047 06/04 Q1017 NOSIG

EXPIRED METARs :
  • 120330Z AUTO VRB02KT 9999 SCT049 OVC060 05/04 Q1017 NOSIG
  • 120300Z AUTO 01004KT 300V040 9999 BKN050 BKN064 05/04 Q1017 NOSIG
  • 120230Z AUTO VRB03KT 9999 FEW052 05/04 Q1018 NOSIG
  • 120200Z AUTO VRB05KT 9999 FEW050 05/04 Q1018
  • 120130Z AUTO VRB04KT CAVOK 05/04 Q1018
  • 120100Z AUTO VRB04KT CAVOK 05/04 Q1018

TAF TAF LFMD
Valid from the 12 at 03:00 until the 13 at 03:00 UTC


120200Z 1203/1303 VRB03KT 9999 SCT040
TEMPO 1217/1303 09015G25KT SHRA FEW030TCU
ATIS : +33 4 93 48 73 23
No reported NOTAMs for that airfield.



MET'MAP, your aeronautical weather chart ! - Copyright ORBIFLY December 2007 - Disclaimer

ORBIFLY MET'MAP TEAM :

Programming & Development : Alexandra Zaïnal
Concept & Development : Baudouin d'Aumeries
Co-Development & Prog : Marc-Olivier Méhu
Technical & hardware support : Manuel Goepfert

Contact : metmap@orbifly.com




SOURCES & CREDITS :

   NOAA